Depesze METAR z lotnisk oddalonych od Rybnika do 200 kilometrów

LKMT - Ostrava/Mosnov, Czech Republic
Distance from station: SSW 55km
Updated: Thu, 13/12/2018 20:00 CET
Mist, Overcast
Mist, Overcast
 Wind from NNE
Wind: NNE 7 km/h
Temperature: -1°C
Wind Chill: -4°C
Dew Point: -2°C
Humidity: 93%
Barometer: 1021 hPa
Summary: Mist
Clouds: Overcast
Visibility: 4 km
Cloud details: Mostly Cloudy 305 m
Overcast 914 m
2018/12/13 19:00 LKMT 131900Z 03004KT 3500 BR BKN010 OVC030 M01/M02 Q1021 NOSIG
EPKT - Katowice/Pyrzowi, Poland
Distance from station: NE 58km
Updated: Thu, 13/12/2018 20:00 CET
Mist, Mostly cloudy
Mist, Mostly cloudy
 Wind from ENE
Wind: ENE 6 km/h
Temperature: -1°C
Dew Point: -1°C
Humidity: 100%
Barometer: 1021 hPa
Summary: Mist
Clouds: Mostly Cloudy
Visibility: 2 km
Cloud details: Mostly Cloudy 823 m
2018/12/13 19:00 EPKT 131900Z 06003KT 2100 BR BKN027 M01/M01 Q1021
 
EPKK - Krakow/Balice, Poland
Distance from station: E 91km
Updated: Thu, 13/12/2018 20:00 CET
Mist, Mostly cloudy
Mist, Mostly cloudy
 Wind from S
Wind: S 2 km/h
Temperature: 0°C
Dew Point: -1°C
Humidity: 93%
Barometer: 1021 hPa
Summary: Mist
Clouds: Mostly Cloudy
Visibility: 2 km
Cloud details: Mostly Cloudy 91 m
2018/12/13 19:00 EPKK 131900Z 18001KT 2000 BR BKN003 M00/M01 Q1021 R25/81//95
LZZI - Zilina, Slovakia
Distance from station: S 95km
Updated: Thu, 13/12/2018 20:00 CET
Mist, Few clouds
Mist, Few clouds
 Wind from ESE
Wind: ESE 6 km/h
Temperature: -5°C
Dew Point: -6°C
Humidity: 93%
Barometer: 1021 hPa
Summary: Mist
Clouds: Few Clouds
Visibility: 5 km
Cloud details: Few Clouds 152 m
2018/12/13 19:00 LZZI 131900Z 12003KT 5000 BR FEW005 M05/M06 Q1021
 
LKKU - Kunovice, Czech Republic
Distance from station: SW 139km
Updated: Thu, 13/12/2018 16:00 CET
NOT Current
Partly Cloudy
Partly Cloudy
 Wind from N
Wind: N 11 km/h
Temperature: 0°C
Wind Chill: -4°C
Dew Point: -3°C
Humidity: 80%
Barometer: 1020 hPa
Clouds: Partly Cloudy
Visibility: 9 km
2018/12/13 15:00 LKKU 131500Z 35006KT 9000 NSC M00/M03 Q1020
EPWR - Wroclaw/Strachow, Poland
Distance from station: NW 163km
Updated: Thu, 13/12/2018 20:00 CET
Mist, Overcast
Mist, Overcast
 Wind from NE
Wind: NE 9 km/h
Temperature: 1°C
Wind Chill: -2°C
Dew Point: 0°C
Humidity: 93%
Barometer: 1022 hPa
Summary: Mist
Clouds: Overcast
Visibility: 5 km
Cloud details: Partly Cloudy 61 m
Overcast 122 m
2018/12/13 19:00 EPWR 131900Z 05005KT 5000 BR SCT002 OVC004 01/00 Q1022 R11/29//95
 
LZSL - Sliac, Slovakia
Distance from station: SSE 168km
Updated: Thu, 13/12/2018 20:00 CET
Mist, Overcast
Mist, Overcast
 Wind from varies
Wind: varies 4 km/h
Temperature: -4°C
Dew Point: -5°C
Humidity: 93%
Barometer: 1021 hPa
Summary: Mist
Clouds: Overcast
Visibility: 2 km
Cloud details: Overcast 61 m
2018/12/13 19:00 LZSL 131900Z VRB02KT 2000 BR OVC002 M04/M05 Q1021
LZTT - Poprad/Tatry, Slovakia
Distance from station: SE 168km
Updated: Thu, 13/12/2018 20:00 CET
Overcast
Overcast
 Wind from W
Wind: W 9 km/h
Temperature: -6°C
Wind Chill: -11°C
Dew Point: -8°C
Humidity: 86%
Barometer: 1018 hPa
Clouds: Overcast
Visibility: 10 km
Cloud details: Partly Cloudy 427 m
Overcast 579 m
2018/12/13 19:00 LZTT 131900Z 26005KT 9999 SCT014 OVC019 M06/M08 Q1018
 
LKTB - Brno/Turany, Czech Republic
Distance from station: SW 170km
Updated: Thu, 13/12/2018 20:00 CET
Overcast
Overcast
 Wind from ENE
Wind: ENE 17 km/h
Temperature: -1°C
Wind Chill: -6°C
Dew Point: -3°C
Humidity: 86%
Barometer: 1021 hPa
Clouds: Overcast
Visibility: 8 km
Cloud details: Overcast 701 m
2018/12/13 19:00 LKTB 131900Z 07009KT 8000 OVC023 M01/M03 Q1021 R27/25//95 NOSIG
LZPP - Piestany, Slovakia
Distance from station: SSW 171km
Updated: Thu, 13/12/2018 20:00 CET
Overcast
Overcast
 Wind from ENE
Wind: ENE 4 km/h
Temperature: -1°C
Dew Point: -3°C
Humidity: 86%
Barometer: 1021 hPa
Clouds: Overcast
Visibility: 8 km
Cloud details: Overcast 305 m
2018/12/13 19:00 LZPP 131900Z 07002KT 8000 OVC010 M01/M03 Q1021
 
EPLL - Lodz/Lublinek, Poland
Distance from station: NNE 191km
Updated: Thu, 13/12/2018 20:00 CET
Mostly Cloudy
Mostly Cloudy
 Wind from NNE
Wind: NNE 9 km/h
Temperature: -1°C
Wind Chill: -4°C
Dew Point: -2°C
Humidity: 93%
Barometer: 1022 hPa
Clouds: Mostly Cloudy
Visibility: 10 km
Cloud details: Mostly Cloudy 213 m
2018/12/13 19:00 EPLL 131900Z 02005KT 9999 BKN007 M01/M02 Q1022
LKPD - Pardubice, Czech Republic
Distance from station: W 200km
Updated: Thu, 13/12/2018 20:00 CET
Few Clouds
Few Clouds
 Wind from S
Wind: S 7 km/h
Temperature: -3°C
Wind Chill: -6°C
Dew Point: -5°C
Humidity: 86%
Barometer: 1021 hPa
Clouds: Few Clouds
Visibility: 10 km
Cloud details: Few Clouds 610 m
2018/12/13 19:00 LKPD 131900Z 19004KT 9999 FEW020 M03/M05 Q1021 NOSIG RMK BLU BLU

Metar display script from Saratoga-Weather.org